Time;durP1;ratioP1;P1;durP2;ratioP2;P2;SDS_P1;SDS_P2;PMS_P1;PMS_P2;Temp;Humidity;BMP_temperature;BMP_pressure;BME280_temperature;BME280_humidity;BME280_pressure;Samples;Min_cycle;Max_cycle;Signal;HPM_P1;HPM_P2
2022/01/02 00:01:30;;;;;;;;;;;8.00;99.90;;;;;;4910706;29;20505;-64
2022/01/02 00:04:00;;;;;;;;;;;8.00;99.90;;;;;;4912984;29;19969;-64
2022/01/02 00:06:31;;;;;;;;;;;8.00;99.90;;;;;;4908129;29;20558;-64
2022/01/02 00:09:04;;;;;;;16.00;14.40;;;8.00;99.90;;;;;;4916531;29;20668;-64
2022/01/02 00:11:34;;;;;;;15.93;14.23;;;8.00;99.90;;;;;;4914048;29;20283;-64
2022/01/02 00:14:08;;;;;;;16.17;14.50;;;8.00;99.90;;;;;;4915340;29;20276;-64
2022/01/02 00:16:37;;;;;;;18.52;14.93;;;8.00;99.90;;;;;;4915147;29;20209;-65
2022/01/02 00:19:19;;;;;;;18.27;15.32;;;8.00;99.90;;;;;;4915234;29;20639;-65
2022/01/02 00:21:48;;;;;;;22.05;15.25;;;7.90;99.90;;;;;;4920410;29;20307;-63
2022/01/02 00:24:19;;;;;;;20.27;16.25;;;8.20;99.90;;;;;;4915446;29;20677;-63
2022/01/02 00:26:51;;;;;;;21.73;16.23;;;8.40;99.90;;;;;;4916447;29;20232;-64
2022/01/02 00:29:21;;;;;;;18.58;15.10;;;8.70;99.90;;;;;;4915077;29;20252;-63
2022/01/02 00:31:53;;;;;;;20.33;15.35;;;8.90;99.90;;;;;;4916449;29;20209;-64
2022/01/02 00:34:21;;;;;;;16.05;14.45;;;9.10;99.90;;;;;;4911383;29;20283;-64
2022/01/02 00:36:49;;;;;;;17.88;13.75;;;9.20;99.90;;;;;;4917913;29;20677;-64
2022/01/02 00:39:18;;;;;;;16.95;15.00;;;9.30;99.90;;;;;;4916319;29;20287;-64
2022/01/02 00:41:54;;;;;;;17.70;14.48;;;9.40;99.90;;;;;;4916923;29;20733;-64
2022/01/02 00:44:39;;;;;;;19.35;16.58;;;9.50;99.90;;;;;;4916469;29;20239;-64
2022/01/02 00:47:09;;;;;;;25.05;18.13;;;9.60;99.90;;;;;;4916194;29;20208;-63
2022/01/02 00:49:40;;;;;;;30.00;18.73;;;9.70;99.90;;;;;;4916540;29;20268;-64
2022/01/02 00:52:14;;;;;;;25.23;19.13;;;9.70;99.90;;;;;;4916069;29;20296;-64
2022/01/02 00:54:45;;;;;;;24.40;18.00;;;9.80;99.90;;;;;;4910194;29;20285;-64
2022/01/02 00:57:19;;;;;;;20.15;14.93;;;9.80;99.90;;;;;;4910476;29;20677;-64
2022/01/02 01:00:02;;;;;;;27.35;16.65;;;9.80;99.90;;;;;;4915949;29;20255;-64
2022/01/02 01:02:34;;;;;;;23.55;14.77;;;9.80;99.90;;;;;;4915916;29;20240;-64
2022/01/02 01:05:04;;;;;;;18.48;13.25;;;9.70;99.90;;;;;;4919464;29;20204;-64
2022/01/02 01:07:32;;;;;;;18.10;10.55;;;9.50;99.90;;;;;;4917808;29;20236;-63
2022/01/02 01:10:03;;;;;;;13.23;11.07;;;9.10;99.90;;;;;;4915615;29;20327;-63
2022/01/02 01:12:33;;;;;;;15.77;12.18;;;8.70;99.90;;;;;;4916755;29;20312;-63
2022/01/02 01:15:01;;;;;;;24.35;14.00;;;8.50;99.90;;;;;;4916840;29;20292;-64
2022/01/02 01:17:31;;;;;;;35.65;13.95;;;8.60;99.90;;;;;;4917072;29;20208;-64
2022/01/02 01:19:59;;;;;;;19.38;14.77;;;8.60;99.90;;;;;;4917539;29;20328;-64
2022/01/02 01:22:28;;;;;;;18.70;13.05;;;8.70;99.90;;;;;;4916592;29;20307;-63
2022/01/02 01:24:57;;;;;;;15.98;12.65;;;8.80;99.90;;;;;;4917434;29;20243;-63
2022/01/02 01:27:26;;;;;;;14.38;12.98;;;9.00;99.90;;;;;;4916831;29;20745;-64
2022/01/02 01:29:55;;;;;;;15.38;12.68;;;9.10;99.90;;;;;;4917461;29;20327;-64
2022/01/02 01:32:22;;;;;;;18.98;12.23;;;9.10;99.90;;;;;;4917660;29;20264;-64
2022/01/02 01:34:50;;;;;;;14.80;12.25;;;9.20;99.90;;;;;;4916282;29;20283;-64
2022/01/02 01:37:18;;;;;;;12.45;11.25;;;9.40;99.90;;;;;;4916413;29;20240;-64
2022/01/02 01:39:46;;;;;;;13.75;12.35;;;9.40;99.90;;;;;;4939814;23;20236;-68
2022/01/02 01:42:14;;;;;;;10.85;9.80;;;9.40;99.90;;;;;;4932664;29;20239;-68
2022/01/02 01:45:04;;;;;;;10.73;9.55;;;9.50;99.90;;;;;;4931441;29;20235;-69
2022/01/02 01:47:33;;;;;;;11.48;10.40;;;9.40;99.90;;;;;;4934490;29;20263;-68
2022/01/02 01:50:01;;;;;;;18.00;13.25;;;9.30;99.90;;;;;;4934460;29;20331;-69
2022/01/02 01:52:29;;;;;;;12.75;11.55;;;9.00;99.90;;;;;;4934514;29;20219;-69
2022/01/02 01:54:57;;;;;;;14.45;11.93;;;8.90;99.90;;;;;;4934673;29;20290;-69
2022/01/02 01:57:25;;;;;;;16.30;13.52;;;8.90;99.90;;;;;;4934398;29;20688;-68
2022/01/02 01:59:53;;;;;;;17.98;14.00;;;9.00;99.90;;;;;;4934386;29;20302;-69
2022/01/02 02:02:23;;;;;;;14.50;13.02;;;9.10;99.90;;;;;;4937164;29;20246;-70
2022/01/02 02:04:52;;;;;;;15.93;13.45;;;9.10;99.90;;;;;;4930683;29;20207;-69
2022/01/02 02:07:27;;;;;;;15.80;13.82;;;9.10;99.90;;;;;;4934345;29;20239;-68
2022/01/02 02:10:06;;;;;;;13.85;12.30;;;9.10;99.90;;;;;;4934312;29;20243;-68
2022/01/02 02:12:34;;;;;;;14.10;12.75;;;9.20;99.90;;;;;;4952742;29;20298;-69
2022/01/02 02:15:02;;;;;;;11.27;10.15;;;9.20;99.90;;;;;;4926439;29;20302;-68
2022/01/02 02:17:31;;;;;;;11.73;10.52;;;9.40;99.90;;;;;;4938101;29;20703;-68
2022/01/02 02:20:11;;;;;;;11.73;10.18;;;9.40;99.90;;;;;;4928279;29;20315;-68
2022/01/02 02:22:41;;;;;;;12.57;11.30;;;9.40;99.90;;;;;;4929842;29;20227;-68
2022/01/02 02:25:11;;;;;;;12.43;11.13;;;9.40;99.90;;;;;;4934373;29;20388;-68
2022/01/02 02:27:39;;;;;;;13.85;12.45;;;9.40;99.90;;;;;;4934029;29;20274;-68
2022/01/02 02:30:08;;;;;;;14.07;12.65;;;9.40;99.90;;;;;;4948607;28;20314;-68
2022/01/02 02:32:36;;;;;;;18.25;12.95;;;9.50;99.90;;;;;;4946026;29;20243;-68
2022/01/02 02:35:06;;;;;;;17.38;13.80;;;9.60;99.90;;;;;;4933820;29;20299;-67
2022/01/02 02:37:34;;;;;;;13.95;12.38;;;9.50;99.90;;;;;;4933856;29;20235;-68
2022/01/02 02:40:02;;;;;;;18.52;15.65;;;9.60;99.90;;;;;;4933820;29;20243;-68
2022/01/02 02:42:37;;;;;;;13.30;11.90;;;9.70;99.90;;;;;;4933962;29;20212;-68
2022/01/02 02:50:44;;;;;;;13.18;11.10;;;9.70;99.90;;;;;;4933911;28;20238;-68
2022/01/02 02:53:12;;;;;;;13.00;11.60;;;9.60;99.90;;;;;;4937838;29;20230;-69
2022/01/02 02:55:44;;;;;;;13.93;12.43;;;9.60;99.90;;;;;;4937558;29;20242;-69
2022/01/02 02:58:38;;;;;;;12.15;10.90;;;9.60;99.90;;;;;;4937811;29;20215;-69
2022/01/02 03:01:06;;;;;;;12.63;11.07;;;9.60;99.90;;;;;;4937726;29;20255;-69
2022/01/02 03:03:34;;;;;;;13.10;10.82;;;9.60;99.90;;;;;;4937177;29;20232;-68
2022/01/02 03:06:04;;;;;;;12.93;10.75;;;9.70;99.90;;;;;;4935677;29;20650;-68
2022/01/02 03:08:33;;;;;;;13.40;11.50;;;9.60;99.90;;;;;;4937580;29;20250;-68
2022/01/02 03:11:01;;;;;;;11.88;10.63;;;9.70;99.90;;;;;;4937379;29;20760;-69
2022/01/02 03:13:28;;;;;;;14.10;10.73;;;9.70;99.90;;;;;;4937007;29;20298;-68
2022/01/02 03:15:56;;;;;;;13.77;11.68;;;9.60;99.90;;;;;;4937403;29;20223;-69
2022/01/02 03:18:24;;;;;;;13.60;12.10;;;9.70;99.90;;;;;;4937366;29;20211;-69
2022/01/02 03:20:53;;;;;;;13.23;11.85;;;9.60;99.90;;;;;;4936727;29;20223;-69
2022/01/02 03:23:22;;;;;;;13.60;11.75;;;9.70;99.90;;;;;;4942627;29;20234;-69
2022/01/02 03:25:50;;;;;;;13.82;12.48;;;9.80;99.90;;;;;;4937186;29;20736;-69
2022/01/02 03:28:17;;;;;;;13.02;11.60;;;9.80;99.90;;;;;;4938829;29;20319;-69
2022/01/02 03:30:45;;;;;;;11.75;10.57;;;9.90;99.90;;;;;;4944387;29;20315;-69
2022/01/02 03:33:13;;;;;;;14.20;11.90;;;9.90;99.90;;;;;;4937902;29;20337;-69
2022/01/02 03:35:41;;;;;;;12.68;11.48;;;9.90;99.90;;;;;;4942414;29;20661;-70
2022/01/02 03:38:10;;;;;;;12.68;11.40;;;10.00;99.90;;;;;;4937122;29;20243;-69
2022/01/02 03:40:40;;;;;;;14.15;11.80;;;10.00;99.90;;;;;;4936752;29;20326;-69
2022/01/02 03:43:08;;;;;;;10.32;9.32;;;10.10;99.90;;;;;;4936447;29;20707;-70
2022/01/02 03:45:36;;;;;;;10.93;9.93;;;10.10;99.90;;;;;;4936902;29;20303;-69
2022/01/02 03:48:04;;;;;;;11.15;9.60;;;10.10;99.90;;;;;;4936903;29;20287;-69
2022/01/02 03:50:32;;;;;;;12.30;11.10;;;10.10;99.90;;;;;;4936666;29;20259;-71
2022/01/02 03:53:00;;;;;;;13.07;11.43;;;10.10;99.90;;;;;;4936364;29;20228;-69
2022/01/02 03:55:28;;;;;;;12.80;11.35;;;10.00;99.90;;;;;;4936798;29;20295;-69
2022/01/02 03:57:57;;;;;;;13.85;11.70;;;9.90;99.90;;;;;;4936346;29;20239;-69
2022/01/02 04:00:25;;;;;;;14.80;12.02;;;9.90;99.90;;;;;;4936559;29;20712;-70
2022/01/02 04:02:53;;;;;;;13.13;11.82;;;9.80;99.90;;;;;;4941486;29;20214;-72
2022/01/02 04:05:21;;;;;;;12.63;11.38;;;9.80;99.90;;;;;;4933977;29;20287;-69
2022/01/02 04:07:49;;;;;;;14.48;12.98;;;9.60;99.90;;;;;;4936477;29;20240;-69
2022/01/02 04:10:18;;;;;;;13.65;12.20;;;9.40;99.90;;;;;;4936408;29;20251;-68
2022/01/02 04:12:46;;;;;;;15.23;12.38;;;9.40;99.90;;;;;;4935805;29;20318;-69
2022/01/02 04:15:16;;;;;;;13.23;11.82;;;9.50;99.90;;;;;;4936388;29;20231;-69
2022/01/02 04:17:44;;;;;;;12.85;11.55;;;9.60;99.90;;;;;;4936364;29;20228;-71
2022/01/02 04:20:15;;;;;;;13.35;11.95;;;9.60;99.90;;;;;;4936118;29;20327;-69
2022/01/02 04:22:44;;;;;;;12.05;10.90;;;9.70;99.90;;;;;;4935892;29;20231;-69
2022/01/02 04:25:13;;;;;;;15.93;13.45;;;9.80;99.90;;;;;;4936251;29;20215;-69
2022/01/02 04:27:41;;;;;;;13.27;12.07;;;9.80;99.90;;;;;;4934692;29;20287;-69
2022/01/02 04:30:12;;;;;;;13.90;12.10;;;9.70;99.90;;;;;;4945841;28;20302;-69
2022/01/02 04:32:41;;;;;;;12.90;11.60;;;9.60;99.90;;;;;;4949212;29;20251;-69
2022/01/02 04:35:10;;;;;;;14.25;12.18;;;9.40;99.90;;;;;;4930319;29;20235;-70
2022/01/02 04:37:38;;;;;;;15.23;13.38;;;9.10;99.90;;;;;;4934669;29;20203;-69
2022/01/02 04:40:07;;;;;;;13.40;12.00;;;8.60;99.90;;;;;;4935756;29;20339;-68
2022/01/02 04:42:35;;;;;;;14.98;13.38;;;8.40;99.90;;;;;;4935568;29;20291;-68
2022/01/02 04:45:05;;;;;;;14.32;12.93;;;8.50;99.90;;;;;;4935664;29;20264;-68
2022/01/02 04:47:33;;;;;;;14.05;12.65;;;8.80;99.90;;;;;;4929714;29;20239;-69
2022/01/02 04:50:02;;;;;;;12.38;11.25;;;9.00;99.90;;;;;;4935648;29;20251;-68
2022/01/02 04:52:30;;;;;;;12.38;11.18;;;9.20;99.90;;;;;;4935157;29;20231;-68
2022/01/02 04:54:58;;;;;;;12.63;11.32;;;9.30;99.90;;;;;;4935551;29;20286;-68
2022/01/02 04:57:26;;;;;;;9.65;8.75;;;9.30;99.90;;;;;;4935318;29;20231;-68
2022/01/02 04:59:54;;;;;;;11.65;10.45;;;9.20;99.90;;;;;;4935401;29;20265;-68
2022/01/02 05:02:22;;;;;;;11.85;10.75;;;9.10;99.90;;;;;;4929917;29;20212;-68
2022/01/02 05:04:50;;;;;;;10.52;9.52;;;9.20;99.90;;;;;;4937052;29;20732;-68
2022/01/02 05:07:19;;;;;;;10.77;9.77;;;9.30;99.90;;;;;;4953243;28;20290;-68
2022/01/02 05:09:47;;;;;;;10.50;9.40;;;9.40;99.90;;;;;;4953199;28;20305;-68
2022/01/02 05:12:15;;;;;;;11.50;10.30;;;9.50;99.90;;;;;;4953237;29;20247;-67
2022/01/02 05:14:42;;;;;;;10.80;9.75;;;9.50;99.90;;;;;;4953580;29;20234;-68
2022/01/02 05:17:10;;;;;;;10.98;9.98;;;9.50;99.90;;;;;;4953447;29;20298;-69
2022/01/02 05:19:38;;;;;;;9.50;8.70;;;9.60;99.90;;;;;;4953430;28;20294;-71
2022/01/02 05:22:10;;;;;;;10.05;9.15;;;9.50;99.90;;;;;;4953603;29;20203;-68
2022/01/02 05:24:39;;;;;;;10.38;9.38;;;9.50;99.90;;;;;;4953308;29;20231;-68
2022/01/02 05:27:07;;;;;;;11.35;10.25;;;9.50;99.90;;;;;;4953254;29;20269;-69
2022/01/02 05:29:35;;;;;;;9.32;8.32;;;9.50;99.90;;;;;;4936997;29;20677;-69
2022/01/02 05:32:03;;;;;;;11.82;10.73;;;9.50;99.90;;;;;;4936135;29;20247;-70
2022/01/02 05:34:31;;;;;;;11.50;10.13;;;9.50;99.90;;;;;;4930715;29;20304;-71
2022/01/02 05:36:59;;;;;;;10.10;9.10;;;9.50;99.90;;;;;;4945788;29;20208;-68
2022/01/02 05:39:27;;;;;;;10.30;9.40;;;9.40;99.90;;;;;;4953396;29;20242;-69
2022/01/02 05:41:57;;;;;;;11.60;9.68;;;9.40;99.90;;;;;;4952902;28;20368;-67
2022/01/02 05:44:24;;;;;;;10.05;9.15;;;9.50;99.90;;;;;;4953253;29;20323;-69
2022/01/02 05:46:53;;;;;;;11.18;10.18;;;9.50;99.90;;;;;;4953158;29;20235;-69
2022/01/02 05:49:21;;;;;;;10.88;9.93;;;9.50;99.90;;;;;;4953186;29;20214;-69
2022/01/02 05:51:49;;;;;;;10.25;9.45;;;9.50;99.90;;;;;;4952767;28;20247;-68
2022/01/02 05:54:17;;;;;;;10.57;9.63;;;9.60;99.90;;;;;;4952845;29;20692;-68
2022/01/02 05:56:45;;;;;;;10.45;9.50;;;9.50;99.90;;;;;;4952945;29;20615;-69
2022/01/02 05:59:14;;;;;;;10.35;9.45;;;9.50;99.90;;;;;;4952785;29;20294;-68
2022/01/02 06:01:42;;;;;;;10.05;9.18;;;9.50;99.90;;;;;;4950883;28;20263;-68
2022/01/02 06:04:10;;;;;;;9.82;9.00;;;9.60;99.90;;;;;;4936164;29;20214;-68
2022/01/02 06:06:38;;;;;;;10.45;9.52;;;9.50;99.90;;;;;;4935913;29;20639;-69
2022/01/02 06:09:06;;;;;;;9.85;8.95;;;9.70;99.90;;;;;;4932116;29;20212;-70
2022/01/02 06:11:36;;;;;;;10.13;9.30;;;9.70;99.90;;;;;;4932760;28;20672;-71
2022/01/02 06:14:04;;;;;;;9.75;8.95;;;9.70;99.90;;;;;;4952497;29;20309;-68
2022/01/02 06:16:33;;;;;;;9.57;8.77;;;9.60;99.90;;;;;;4952941;29;20242;-68
2022/01/02 06:19:01;;;;;;;9.60;8.75;;;9.60;99.90;;;;;;4953340;28;20214;-68
2022/01/02 06:21:29;;;;;;;9.10;8.30;;;9.60;99.90;;;;;;4959025;28;20261;-68
2022/01/02 06:23:57;;;;;;;8.73;7.93;;;9.60;99.90;;;;;;4958615;28;20206;-68
2022/01/02 06:26:25;;;;;;;9.70;8.90;;;9.60;99.90;;;;;;4959375;29;20249;-69
2022/01/02 06:28:53;;;;;;;10.13;9.13;;;9.50;99.90;;;;;;4946700;28;20267;-68
2022/01/02 06:31:21;;;;;;;11.35;10.35;;;9.50;99.90;;;;;;4940601;29;20318;-68
2022/01/02 06:33:50;;;;;;;10.40;9.45;;;9.50;99.90;;;;;;4940325;29;20234;-68
2022/01/02 06:36:18;;;;;;;12.18;10.98;;;9.50;99.90;;;;;;4940522;29;20314;-68
2022/01/02 06:38:46;;;;;;;12.93;10.23;;;9.40;99.90;;;;;;4937826;29;20207;-71
2022/01/02 06:41:14;;;;;;;12.45;11.25;;;9.40;99.90;;;;;;4942408;29;20313;-68
2022/01/02 06:43:41;;;;;;;12.15;10.95;;;9.40;99.90;;;;;;4952367;29;21138;-69
2022/01/02 06:46:09;;;;;;;11.90;10.80;;;9.50;99.90;;;;;;4958898;29;20294;-69
2022/01/02 06:48:38;;;;;;;10.70;9.70;;;9.50;99.90;;;;;;4958660;28;20688;-69
2022/01/02 06:51:07;;;;;;;14.60;11.10;;;9.50;99.90;;;;;;4958783;28;20233;-69
2022/01/02 06:53:35;;;;;;;12.00;10.80;;;9.50;99.90;;;;;;4958538;29;20277;-70
2022/01/02 06:56:03;;;;;;;12.38;11.07;;;9.40;99.90;;;;;;4958825;28;20294;-68
2022/01/02 06:58:31;;;;;;;11.38;10.23;;;9.40;99.90;;;;;;4958637;29;20234;-69
2022/01/02 07:00:59;;;;;;;11.43;10.32;;;9.50;99.90;;;;;;4958764;28;20255;-69
2022/01/02 07:03:28;;;;;;;13.52;12.13;;;9.40;99.90;;;;;;4958611;28;20266;-69
2022/01/02 07:05:56;;;;;;;12.40;11.20;;;9.20;99.90;;;;;;4956693;28;20203;-70
2022/01/02 07:08:25;;;;;;;14.57;12.43;;;9.00;99.90;;;;;;4938937;29;20226;-69
2022/01/02 07:10:54;;;;;;;16.48;13.18;;;8.80;99.90;;;;;;4940637;29;20258;-69
2022/01/02 07:13:22;;;;;;;13.55;12.25;;;8.90;99.90;;;;;;4939988;29;20302;-70
2022/01/02 07:15:51;;;;;;;15.77;13.70;;;9.00;99.90;;;;;;4940255;29;20677;-71
2022/01/02 07:18:19;;;;;;;13.68;12.43;;;9.10;99.90;;;;;;4930358;29;20196;-72
2022/01/02 07:20:46;;;;;;;13.65;12.35;;;9.10;99.90;;;;;;4930306;29;20223;-71
2022/01/02 07:23:15;;;;;;;13.82;12.32;;;9.10;99.90;;;;;;4930119;29;20200;-71
2022/01/02 07:25:44;;;;;;;13.13;11.93;;;9.00;99.90;;;;;;4932041;29;20287;-71
2022/01/02 07:28:12;;;;;;;13.30;11.90;;;8.90;99.90;;;;;;4931541;28;20205;-72
2022/01/02 07:30:40;;;;;;;12.70;11.50;;;8.90;99.90;;;;;;4933281;28;20774;-71
2022/01/02 07:33:07;;;;;;;13.93;12.52;;;8.90;99.90;;;;;;4926252;29;20232;-71
2022/01/02 07:35:35;;;;;;;17.55;14.02;;;8.70;99.90;;;;;;4928202;29;20199;-71
2022/01/02 07:38:23;;;;;;;12.43;11.13;;;8.60;99.90;;;;;;4923240;29;20302;-72
2022/01/02 07:40:52;;;;;;;14.20;12.90;;;8.30;99.90;;;;;;4928877;29;20288;-72
2022/01/02 07:43:20;;;;;;;14.07;12.77;;;8.20;99.90;;;;;;4923459;29;20250;-73
2022/01/02 07:45:48;;;;;;;16.42;13.55;;;8.20;99.90;;;;;;4925241;29;20239;-72
2022/01/02 07:48:16;;;;;;;14.57;13.05;;;8.20;99.90;;;;;;4927545;29;20207;-70
2022/01/02 07:50:44;;;;;;;15.38;13.77;;;8.10;99.90;;;;;;4929546;29;20584;-72
2022/01/02 07:53:12;;;;;;;14.18;12.30;;;8.00;99.90;;;;;;4928314;29;20599;-72
2022/01/02 07:55:40;;;;;;;18.20;14.95;;;8.10;99.90;;;;;;4931980;29;20232;-72
2022/01/02 07:58:14;;;;;;;15.95;13.00;;;8.00;99.90;;;;;;4926775;29;20292;-71
2022/01/02 08:00:42;;;;;;;14.82;13.30;;;8.10;99.90;;;;;;4929493;29;20248;-72
2022/01/02 08:03:10;;;;;;;17.05;14.50;;;8.10;99.90;;;;;;4925175;29;20624;-72
2022/01/02 08:05:40;;;;;;;16.13;14.57;;;8.10;99.90;;;;;;4928170;29;20545;-72
2022/01/02 08:08:08;;;;;;;17.45;15.63;;;8.00;99.90;;;;;;4935272;29;20660;-72
2022/01/02 08:10:39;;;;;;;16.70;15.00;;;8.00;99.90;;;;;;4938855;28;20255;-72
2022/01/02 08:13:06;;;;;;;15.77;14.18;;;7.90;99.90;;;;;;4954811;29;20246;-72
2022/01/02 08:15:36;;;;;;;17.30;14.98;;;7.90;99.90;;;;;;4954836;29;20204;-72
2022/01/02 08:18:04;;;;;;;19.40;15.50;;;7.90;99.90;;;;;;4954919;29;20258;-72
2022/01/02 08:20:32;;;;;;;16.50;14.85;;;7.90;99.90;;;;;;4954420;28;20254;-72
2022/01/02 08:22:59;;;;;;;15.45;13.80;;;7.90;99.90;;;;;;4954497;29;20230;-72
2022/01/02 08:25:27;;;;;;;17.23;15.25;;;7.90;99.90;;;;;;4954835;29;20631;-72
2022/01/02 08:27:56;;;;;;;17.10;15.07;;;7.90;99.90;;;;;;4950968;29;20296;-72
2022/01/02 08:30:23;;;;;;;17.23;14.52;;;7.80;99.90;;;;;;4935953;29;20842;-73
2022/01/02 08:32:52;;;;;;;16.40;14.70;;;7.80;99.90;;;;;;4935326;29;20298;-72
2022/01/02 08:35:20;;;;;;;17.58;15.68;;;7.70;99.90;;;;;;4945380;29;20781;-73
2022/01/02 08:37:48;;;;;;;16.35;14.70;;;7.70;99.90;;;;;;4920808;29;20290;-74
2022/01/02 08:40:16;;;;;;;16.00;14.40;;;7.80;99.90;;;;;;4924872;29;20271;-74
2022/01/02 08:42:44;;;;;;;16.35;14.65;;;7.80;99.90;;;;;;4924515;29;20211;-74
2022/01/02 08:45:12;;;;;;;15.80;14.20;;;7.80;99.90;;;;;;4931409;29;20287;-73
2022/01/02 08:47:40;;;;;;;17.52;15.70;;;7.80;99.90;;;;;;4935254;29;20219;-73
2022/01/02 08:50:09;;;;;;;19.52;17.15;;;7.80;99.90;;;;;;4920686;29;20650;-74
2022/01/02 08:52:37;;;;;;;16.60;14.88;;;7.80;99.90;;;;;;4929389;29;20234;-74
2022/01/02 08:55:06;;;;;;;19.80;15.10;;;7.80;99.90;;;;;;4934981;29;20255;-72
2022/01/02 08:57:34;;;;;;;23.67;20.00;;;9.10;99.90;;;;;;4927487;29;20235;-71
2022/01/02 09:00:02;;;;;;;22.90;15.90;;;9.80;99.90;;;;;;4934704;28;20252;-71
2022/01/02 09:02:30;;;;;;;20.85;15.05;;;11.00;99.90;;;;;;4936894;29;20270;-71
2022/01/02 09:04:58;;;;;;;18.30;11.63;;;11.70;99.90;;;;;;4930697;29;20234;-69
2022/01/02 09:07:27;;;;;;;16.58;11.00;;;12.00;99.90;;;;;;4924533;29;20255;-73
2022/01/02 09:09:55;;;;;;;12.25;10.60;;;12.20;99.90;;;;;;4919110;29;20717;-71
2022/01/02 09:12:23;;;;;;;11.40;10.30;;;12.50;99.90;;;;;;4930062;29;20240;-71
2022/01/02 09:14:51;;;;;;;11.10;9.85;;;12.30;99.90;;;;;;4923114;29;21088;-71
2022/01/02 09:17:19;;;;;;;12.30;10.80;;;11.80;99.90;;;;;;4923073;29;20294;-72
2022/01/02 09:19:48;;;;;;;12.30;11.00;;;11.60;99.90;;;;;;4928301;29;20236;-72
2022/01/02 09:22:16;;;;;;;12.88;10.57;;;11.50;99.90;;;;;;4930825;29;20637;-70
2022/01/02 09:24:46;;;;;;;14.00;12.52;;;11.60;99.90;;;;;;4927517;29;20234;-72
2022/01/02 09:27:13;;;;;;;14.25;12.75;;;11.40;99.90;;;;;;4926504;29;20235;-73
2022/01/02 09:29:41;;;;;;;13.77;12.35;;;10.70;99.90;;;;;;4929973;29;20632;-74
2022/01/02 09:32:09;;;;;;;14.98;12.10;;;10.20;99.90;;;;;;4930979;29;20298;-72
2022/01/02 09:34:37;;;;;;;18.50;15.80;;;9.70;99.90;;;;;;4933250;29;20886;-72
2022/01/02 09:37:05;;;;;;;16.25;14.30;;;9.10;99.90;;;;;;4926379;29;20243;-72
2022/01/02 09:39:33;;;;;;;15.50;13.93;;;8.70;99.90;;;;;;4931144;28;20294;-72
2022/01/02 09:42:12;;;;;;;15.25;13.65;;;8.50;99.90;;;;;;4936411;29;20642;-72
2022/01/02 09:44:40;;;;;;;16.98;15.00;;;8.30;99.90;;;;;;4928684;29;20288;-72
2022/01/02 09:47:10;;;;;;;17.48;15.63;;;8.10;99.90;;;;;;4937237;29;20294;-72
2022/01/02 09:49:40;;;;;;;16.67;14.60;;;8.10;99.90;;;;;;4932819;28;20273;-72
2022/01/02 09:52:08;;;;;;;21.67;16.65;;;8.00;99.90;;;;;;4932492;29;20787;-72
2022/01/02 09:54:36;;;;;;;19.85;14.77;;;8.10;99.90;;;;;;4929111;29;20262;-71
2022/01/02 09:57:05;;;;;;;18.48;16.27;;;7.90;99.90;;;;;;4926799;29;20232;-72
2022/01/02 09:59:34;;;;;;;21.05;18.73;;;7.90;99.90;;;;;;4920667;29;20216;-72
2022/01/02 10:02:03;;;;;;;18.40;16.52;;;7.90;99.90;;;;;;4937352;29;20265;-72
2022/01/02 10:04:33;;;;;;;17.67;15.75;;;7.90;99.90;;;;;;4931676;29;20594;-72
2022/01/02 10:07:02;;;;;;;18.08;15.75;;;7.90;99.90;;;;;;4931310;29;20242;-72
2022/01/02 10:09:31;;;;;;;17.38;15.55;;;7.80;99.90;;;;;;4926408;29;20302;-72
2022/01/02 10:12:23;;;;;;;18.95;16.23;;;7.80;99.90;;;;;;4936249;29;20258;-71
2022/01/02 10:15:15;;;;;;;17.83;15.10;;;7.90;99.90;;;;;;4948028;29;20708;-73
2022/01/02 10:18:01;;;;;;;16.60;14.57;;;7.90;99.90;;;;;;4942091;28;20239;-70
2022/01/02 10:20:32;;;;;;;16.58;13.88;;;7.90;99.90;;;;;;4929559;28;20286;-73
2022/01/02 10:23:02;;;;;;;15.57;13.90;;;7.90;99.90;;;;;;4941602;29;20283;-70
2022/01/02 10:25:41;;;;;;;16.92;15.00;;;8.00;99.90;;;;;;4930959;29;20212;-72
2022/01/02 10:28:26;;;;;;;16.17;14.50;;;7.90;99.90;;;;;;4920672;29;20236;-73
2022/01/02 10:30:58;;;;;;;16.38;14.77;;;7.90;99.90;;;;;;4933868;28;20277;-72
2022/01/02 10:33:27;;;;;;;16.23;14.15;;;7.90;99.90;;;;;;4943471;29;20283;-73
2022/01/02 10:36:03;;;;;;;16.77;15.05;;;7.90;99.90;;;;;;4947083;29;20270;-73
2022/01/02 10:38:32;;;;;;;17.67;15.93;;;7.90;99.90;;;;;;4926544;29;20250;-74
2022/01/02 10:41:00;;;;;;;17.65;15.80;;;7.80;99.90;;;;;;4931658;28;20236;-71
2022/01/02 10:43:30;;;;;;;17.80;15.90;;;7.90;99.90;;;;;;4949387;29;20219;-72
2022/01/02 10:46:03;;;;;;;19.38;17.08;;;8.00;99.90;;;;;;4948756;29;20743;-73
2022/01/02 10:48:37;;;;;;;18.83;16.90;;;7.90;99.90;;;;;;4936741;29;20555;-73
2022/01/02 10:51:08;;;;;;;20.23;16.38;;;8.00;99.90;;;;;;4920410;29;20219;-72
2022/01/02 10:53:39;;;;;;;20.30;17.45;;;8.00;99.90;;;;;;4928855;29;20227;-73
2022/01/02 10:56:08;;;;;;;22.30;19.90;;;8.00;99.90;;;;;;4932683;29;20227;-73
2022/01/02 10:58:36;;;;;;;19.73;17.13;;;7.90;99.90;;;;;;4922421;29;20287;-73
2022/01/02 11:01:07;;;;;;;17.48;15.68;;;7.80;99.90;;;;;;4926627;29;20845;-72
2022/01/02 11:03:35;;;;;;;20.30;16.80;;;7.80;99.90;;;;;;4927404;29;20287;-72
2022/01/02 11:06:08;;;;;;;18.88;17.08;;;7.70;99.90;;;;;;4934775;29;20207;-73
2022/01/02 11:08:37;;;;;;;19.58;17.58;;;7.70;99.90;;;;;;4921242;29;20231;-72
2022/01/02 11:11:06;;;;;;;17.92;16.25;;;7.70;99.90;;;;;;4936705;28;20285;-73
2022/01/02 11:13:35;;;;;;;20.15;18.05;;;7.70;99.90;;;;;;4951639;29;20229;-72
2022/01/02 11:16:04;;;;;;;19.58;17.60;;;7.70;99.90;;;;;;4951341;28;20219;-73
2022/01/02 11:18:35;;;;;;;21.17;18.58;;;7.80;99.90;;;;;;4938140;29;20862;-73
2022/01/02 11:21:09;;;;;;;19.77;17.75;;;7.90;99.90;;;;;;4933633;29;20267;-73
2022/01/02 11:23:46;;;;;;;18.67;16.55;;;8.00;99.90;;;;;;4935702;29;20255;-72
2022/01/02 11:26:20;;;;;;;20.33;18.17;;;8.10;99.90;;;;;;4933713;29;21103;-72
2022/01/02 11:29:09;;;;;;;17.15;15.55;;;8.00;99.90;;;;;;4929198;29;20242;-72
2022/01/02 11:31:39;;;;;;;19.58;17.48;;;8.00;99.90;;;;;;4926458;28;20872;-73
2022/01/02 11:34:23;;;;;;;19.83;17.77;;;8.10;99.90;;;;;;4932278;29;20247;-72
2022/01/02 11:36:51;;;;;;;17.35;15.45;;;8.20;99.90;;;;;;4940293;29;20787;-73
2022/01/02 11:39:20;;;;;;;18.30;16.05;;;8.20;99.90;;;;;;4925005;29;20283;-73
2022/01/02 11:41:50;;;;;;;15.55;14.05;;;8.30;99.90;;;;;;4926582;29;20286;-72
2022/01/02 11:44:19;;;;;;;15.30;13.90;;;8.30;99.90;;;;;;4926509;29;20744;-73
2022/01/02 11:46:50;;;;;;;15.82;14.23;;;8.20;99.90;;;;;;4932016;29;20250;-73
2022/01/02 11:49:25;;;;;;;13.90;12.50;;;8.30;99.90;;;;;;4925719;29;20258;-72
2022/01/02 11:52:18;;;;;;;14.77;13.00;;;8.30;99.90;;;;;;4932189;29;20327;-72
2022/01/02 11:54:58;;;;;;;15.77;13.90;;;8.40;99.90;;;;;;4932078;29;20236;-72
2022/01/02 11:57:54;;;;;;;15.90;14.32;;;8.40;99.90;;;;;;4931280;29;20235;-69
2022/01/02 12:00:38;;;;;;;14.68;12.85;;;8.40;99.90;;;;;;4930023;28;20283;-73
2022/01/02 12:03:07;;;;;;;16.27;13.30;;;8.50;99.90;;;;;;4925296;29;20231;-73
2022/01/02 12:05:36;;;;;;;15.95;14.25;;;8.60;99.90;;;;;;4925393;29;20661;-72
2022/01/02 12:08:06;;;;;;;13.93;12.63;;;8.80;99.90;;;;;;4922223;29;20204;-73
2022/01/02 12:10:38;;;;;;;13.90;12.55;;;9.20;99.90;;;;;;4934210;29;20247;-73
2022/01/02 12:13:23;;;;;;;13.80;12.43;;;9.60;99.90;;;;;;4944180;29;20204;-72
2022/01/02 12:16:11;;;;;;;13.73;12.32;;;9.60;99.90;;;;;;4937990;28;20323;-73
2022/01/02 12:18:58;;;;;;;12.88;11.52;;;9.80;99.90;;;;;;4929025;29;20227;-73
2022/01/02 12:21:27;;;;;;;13.27;11.98;;;10.10;99.90;;;;;;4919887;28;20264;-73
2022/01/02 12:23:56;;;;;;;11.30;10.30;;;10.30;99.90;;;;;;4938731;29;20290;-74
2022/01/02 12:26:29;;;;;;;12.05;10.82;;;10.40;99.90;;;;;;4939468;29;20231;-73
2022/01/02 12:29:01;;;;;;;13.23;11.82;;;10.30;99.90;;;;;;4932446;29;21086;-72
2022/01/02 12:31:31;;;;;;;12.38;11.18;;;10.30;99.90;;;;;;4927391;28;20266;-73
2022/01/02 12:34:08;;;;;;;12.88;11.68;;;10.10;99.90;;;;;;4947990;29;20215;-73
2022/01/02 12:36:41;;;;;;;13.07;11.73;;;10.00;99.90;;;;;;4934306;29;20251;-72
2022/01/02 12:39:10;;;;;;;13.57;12.18;;;9.90;99.90;;;;;;4919107;29;20303;-73
2022/01/02 12:41:41;;;;;;;12.32;11.13;;;9.90;99.90;;;;;;4935062;29;20796;-73
2022/01/02 12:44:10;;;;;;;13.50;11.48;;;10.00;99.90;;;;;;4926136;29;20271;-72
2022/01/02 12:46:41;;;;;;;11.57;10.55;;;9.90;99.90;;;;;;4931227;29;20259;-72
2022/01/02 12:49:11;;;;;;;13.10;11.68;;;9.90;99.90;;;;;;4926584;29;20212;-72
2022/01/02 12:51:42;;;;;;;12.27;11.00;;;9.80;99.90;;;;;;4938972;28;20258;-73
2022/01/02 12:54:12;;;;;;;13.75;11.98;;;9.80;99.90;;;;;;4949058;28;20214;-73
2022/01/02 12:56:42;;;;;;;12.60;11.30;;;9.80;99.90;;;;;;4949101;29;20265;-72
2022/01/02 12:59:25;;;;;;;12.50;11.20;;;9.80;99.90;;;;;;4928003;28;20304;-73